sensor_id;sensor_type;location;lat;lon;timestamp;P1;durP1;ratioP1;P2;durP2;ratioP2
31732;SDS011;18312;51.486;7.144;2024-02-26T00:01:17;1301.40;;;999.90;;
31732;SDS011;18312;51.486;7.144;2024-02-26T00:03:44;1308.80;;;999.90;;
31732;SDS011;18312;51.486;7.144;2024-02-26T00:06:12;1303.40;;;999.90;;
31732;SDS011;18312;51.486;7.144;2024-02-26T00:08:39;1297.97;;;999.90;;
31732;SDS011;18312;51.486;7.144;2024-02-26T00:11:07;1307.40;;;999.90;;
31732;SDS011;18312;51.486;7.144;2024-02-26T00:13:34;1301.53;;;999.90;;
31732;SDS011;18312;51.486;7.144;2024-02-26T00:16:02;1312.47;;;999.90;;
31732;SDS011;18312;51.486;7.144;2024-02-26T00:18:29;1300.78;;;999.90;;
31732;SDS011;18312;51.486;7.144;2024-02-26T00:20:56;1306.95;;;999.90;;
31732;SDS011;18312;51.486;7.144;2024-02-26T00:23:23;1307.10;;;999.90;;
31732;SDS011;18312;51.486;7.144;2024-02-26T00:25:50;1299.95;;;999.90;;
31732;SDS011;18312;51.486;7.144;2024-02-26T00:28:18;1303.18;;;999.90;;
31732;SDS011;18312;51.486;7.144;2024-02-26T00:30:45;1310.65;;;999.90;;
31732;SDS011;18312;51.486;7.144;2024-02-26T00:33:12;1316.95;;;999.90;;
31732;SDS011;18312;51.486;7.144;2024-02-26T00:35:40;1310.82;;;999.90;;
31732;SDS011;18312;51.486;7.144;2024-02-26T00:38:06;1307.63;;;999.90;;
31732;SDS011;18312;51.486;7.144;2024-02-26T00:40:33;1295.57;;;999.90;;
31732;SDS011;18312;51.486;7.144;2024-02-26T00:43:00;1304.47;;;999.90;;
31732;SDS011;18312;51.486;7.144;2024-02-26T00:45:28;1309.18;;;999.90;;
31732;SDS011;18312;51.486;7.144;2024-02-26T00:47:57;1299.28;;;999.90;;
31732;SDS011;18312;51.486;7.144;2024-02-26T00:50:26;1310.95;;;999.90;;
31732;SDS011;18312;51.486;7.144;2024-02-26T00:52:53;1307.25;;;999.90;;
31732;SDS011;18312;51.486;7.144;2024-02-26T00:55:19;1294.55;;;999.90;;
31732;SDS011;18312;51.486;7.144;2024-02-26T00:57:46;1310.45;;;999.90;;
31732;SDS011;18312;51.486;7.144;2024-02-26T01:00:14;1319.70;;;999.90;;
31732;SDS011;18312;51.486;7.144;2024-02-26T01:02:42;1307.18;;;999.90;;
31732;SDS011;18312;51.486;7.144;2024-02-26T01:05:11;1307.68;;;999.90;;
31732;SDS011;18312;51.486;7.144;2024-02-26T01:07:38;1315.00;;;999.90;;
31732;SDS011;18312;51.486;7.144;2024-02-26T01:10:06;1317.50;;;999.90;;
31732;SDS011;18312;51.486;7.144;2024-02-26T01:12:33;1310.38;;;999.90;;
31732;SDS011;18312;51.486;7.144;2024-02-26T01:15:00;1308.80;;;999.90;;
31732;SDS011;18312;51.486;7.144;2024-02-26T01:17:28;1313.15;;;999.90;;
31732;SDS011;18312;51.486;7.144;2024-02-26T01:19:56;1316.30;;;999.90;;
31732;SDS011;18312;51.486;7.144;2024-02-26T01:22:24;1292.07;;;999.90;;
31732;SDS011;18312;51.486;7.144;2024-02-26T01:24:51;1324.63;;;999.90;;
31732;SDS011;18312;51.486;7.144;2024-02-26T01:27:18;1313.22;;;999.90;;
31732;SDS011;18312;51.486;7.144;2024-02-26T01:29:44;1309.05;;;999.90;;
31732;SDS011;18312;51.486;7.144;2024-02-26T01:32:11;1313.70;;;999.90;;
31732;SDS011;18312;51.486;7.144;2024-02-26T01:34:38;1328.78;;;999.90;;
31732;SDS011;18312;51.486;7.144;2024-02-26T01:37:08;1320.25;;;999.90;;
31732;SDS011;18312;51.486;7.144;2024-02-26T01:39:34;1314.82;;;999.90;;
31732;SDS011;18312;51.486;7.144;2024-02-26T01:42:01;1307.23;;;999.90;;
31732;SDS011;18312;51.486;7.144;2024-02-26T01:44:28;1311.22;;;999.90;;
31732;SDS011;18312;51.486;7.144;2024-02-26T01:46:55;1312.22;;;999.90;;
31732;SDS011;18312;51.486;7.144;2024-02-26T01:49:22;1298.35;;;999.90;;
31732;SDS011;18312;51.486;7.144;2024-02-26T01:51:49;1311.33;;;999.90;;
31732;SDS011;18312;51.486;7.144;2024-02-26T01:54:17;1305.87;;;999.90;;
31732;SDS011;18312;51.486;7.144;2024-02-26T01:56:45;1303.50;;;999.90;;
31732;SDS011;18312;51.486;7.144;2024-02-26T01:59:12;1297.18;;;999.90;;
31732;SDS011;18312;51.486;7.144;2024-02-26T02:01:39;1296.73;;;999.90;;
31732;SDS011;18312;51.486;7.144;2024-02-26T02:04:08;1301.75;;;999.90;;
31732;SDS011;18312;51.486;7.144;2024-02-26T02:06:35;1299.83;;;999.90;;
31732;SDS011;18312;51.486;7.144;2024-02-26T02:09:03;1303.45;;;999.90;;
31732;SDS011;18312;51.486;7.144;2024-02-26T02:11:33;1302.78;;;999.90;;
31732;SDS011;18312;51.486;7.144;2024-02-26T02:14:00;1313.38;;;999.90;;
31732;SDS011;18312;51.486;7.144;2024-02-26T02:16:27;1303.15;;;999.90;;
31732;SDS011;18312;51.486;7.144;2024-02-26T02:18:53;1297.78;;;999.90;;
31732;SDS011;18312;51.486;7.144;2024-02-26T02:21:22;1312.30;;;999.90;;
31732;SDS011;18312;51.486;7.144;2024-02-26T02:23:49;1303.82;;;999.90;;
31732;SDS011;18312;51.486;7.144;2024-02-26T02:26:16;1306.60;;;999.90;;
31732;SDS011;18312;51.486;7.144;2024-02-26T02:28:45;1305.88;;;999.90;;
31732;SDS011;18312;51.486;7.144;2024-02-26T02:31:13;1317.00;;;999.90;;
31732;SDS011;18312;51.486;7.144;2024-02-26T02:33:41;1311.40;;;999.90;;
31732;SDS011;18312;51.486;7.144;2024-02-26T02:36:08;1297.70;;;999.90;;
31732;SDS011;18312;51.486;7.144;2024-02-26T02:38:37;1306.05;;;999.90;;
31732;SDS011;18312;51.486;7.144;2024-02-26T02:41:04;1317.03;;;999.90;;
31732;SDS011;18312;51.486;7.144;2024-02-26T02:43:31;1297.45;;;999.90;;
31732;SDS011;18312;51.486;7.144;2024-02-26T02:45:58;1306.90;;;999.90;;
31732;SDS011;18312;51.486;7.144;2024-02-26T02:48:25;1295.50;;;999.90;;
31732;SDS011;18312;51.486;7.144;2024-02-26T02:50:52;1303.60;;;999.90;;
31732;SDS011;18312;51.486;7.144;2024-02-26T02:53:18;1301.57;;;999.90;;
31732;SDS011;18312;51.486;7.144;2024-02-26T02:55:47;1293.72;;;999.90;;
31732;SDS011;18312;51.486;7.144;2024-02-26T02:58:14;1314.23;;;999.90;;
31732;SDS011;18312;51.486;7.144;2024-02-26T03:00:41;1304.35;;;999.90;;
31732;SDS011;18312;51.486;7.144;2024-02-26T03:03:08;1307.25;;;999.90;;
31732;SDS011;18312;51.486;7.144;2024-02-26T03:05:35;1309.20;;;999.90;;
31732;SDS011;18312;51.486;7.144;2024-02-26T03:08:01;1296.20;;;999.90;;
31732;SDS011;18312;51.486;7.144;2024-02-26T03:10:28;1295.90;;;999.90;;
31732;SDS011;18312;51.486;7.144;2024-02-26T03:12:57;1302.63;;;999.90;;
31732;SDS011;18312;51.486;7.144;2024-02-26T03:15:24;1286.77;;;999.90;;
31732;SDS011;18312;51.486;7.144;2024-02-26T03:17:51;1292.93;;;999.90;;
31732;SDS011;18312;51.486;7.144;2024-02-26T03:20:18;1301.17;;;999.90;;
31732;SDS011;18312;51.486;7.144;2024-02-26T03:22:45;1293.28;;;999.90;;
31732;SDS011;18312;51.486;7.144;2024-02-26T03:25:15;1299.28;;;999.90;;
31732;SDS011;18312;51.486;7.144;2024-02-26T03:27:44;1296.03;;;999.90;;
31732;SDS011;18312;51.486;7.144;2024-02-26T03:30:12;1272.82;;;999.90;;
31732;SDS011;18312;51.486;7.144;2024-02-26T03:32:39;1302.45;;;999.90;;
31732;SDS011;18312;51.486;7.144;2024-02-26T03:35:06;1290.40;;;999.90;;
31732;SDS011;18312;51.486;7.144;2024-02-26T03:37:34;1287.50;;;999.90;;
31732;SDS011;18312;51.486;7.144;2024-02-26T03:40:01;1289.35;;;999.90;;
31732;SDS011;18312;51.486;7.144;2024-02-26T03:42:28;1250.45;;;999.90;;
31732;SDS011;18312;51.486;7.144;2024-02-26T03:44:55;1273.68;;;999.90;;
31732;SDS011;18312;51.486;7.144;2024-02-26T03:47:24;1280.57;;;999.90;;
31732;SDS011;18312;51.486;7.144;2024-02-26T03:49:51;1227.28;;;999.90;;
31732;SDS011;18312;51.486;7.144;2024-02-26T03:52:21;1239.80;;;999.90;;
31732;SDS011;18312;51.486;7.144;2024-02-26T03:54:50;1238.82;;;999.90;;
31732;SDS011;18312;51.486;7.144;2024-02-26T03:57:23;1229.45;;;999.90;;
31732;SDS011;18312;51.486;7.144;2024-02-26T03:59:53;1237.82;;;999.90;;
31732;SDS011;18312;51.486;7.144;2024-02-26T04:02:21;1234.73;;;999.90;;
31732;SDS011;18312;51.486;7.144;2024-02-26T04:04:49;1240.60;;;999.90;;
31732;SDS011;18312;51.486;7.144;2024-02-26T04:07:17;1231.47;;;999.90;;
31732;SDS011;18312;51.486;7.144;2024-02-26T04:09:44;1213.93;;;999.90;;
31732;SDS011;18312;51.486;7.144;2024-02-26T04:12:11;1219.13;;;999.90;;
31732;SDS011;18312;51.486;7.144;2024-02-26T04:14:38;1199.80;;;999.90;;
31732;SDS011;18312;51.486;7.144;2024-02-26T04:17:05;1210.75;;;999.90;;
31732;SDS011;18312;51.486;7.144;2024-02-26T04:19:32;1212.88;;;999.90;;
31732;SDS011;18312;51.486;7.144;2024-02-26T04:22:01;1165.80;;;999.90;;
31732;SDS011;18312;51.486;7.144;2024-02-26T04:24:28;1190.00;;;999.90;;
31732;SDS011;18312;51.486;7.144;2024-02-26T04:26:55;1182.72;;;999.90;;
31732;SDS011;18312;51.486;7.144;2024-02-26T04:29:25;1204.85;;;999.90;;
31732;SDS011;18312;51.486;7.144;2024-02-26T04:31:55;1160.30;;;999.90;;
31732;SDS011;18312;51.486;7.144;2024-02-26T04:34:25;1146.93;;;999.90;;
31732;SDS011;18312;51.486;7.144;2024-02-26T04:36:53;1156.07;;;999.90;;
31732;SDS011;18312;51.486;7.144;2024-02-26T04:39:29;1153.10;;;999.90;;
31732;SDS011;18312;51.486;7.144;2024-02-26T04:41:56;1160.82;;;999.90;;
31732;SDS011;18312;51.486;7.144;2024-02-26T04:44:28;1164.35;;;999.90;;
31732;SDS011;18312;51.486;7.144;2024-02-26T04:46:55;1164.85;;;999.90;;
31732;SDS011;18312;51.486;7.144;2024-02-26T04:49:24;1182.93;;;999.90;;
31732;SDS011;18312;51.486;7.144;2024-02-26T04:51:51;1201.63;;;999.90;;
31732;SDS011;18312;51.486;7.144;2024-02-26T04:54:21;1223.63;;;999.90;;
31732;SDS011;18312;51.486;7.144;2024-02-26T04:56:53;1177.53;;;999.90;;
31732;SDS011;18312;51.486;7.144;2024-02-26T04:59:25;1209.45;;;999.90;;
31732;SDS011;18312;51.486;7.144;2024-02-26T05:01:53;1184.65;;;999.90;;
31732;SDS011;18312;51.486;7.144;2024-02-26T05:04:21;1154.77;;;999.90;;
31732;SDS011;18312;51.486;7.144;2024-02-26T05:06:49;1185.75;;;999.90;;
31732;SDS011;18312;51.486;7.144;2024-02-26T05:09:16;1186.72;;;999.90;;
31732;SDS011;18312;51.486;7.144;2024-02-26T05:11:44;1158.40;;;999.90;;
31732;SDS011;18312;51.486;7.144;2024-02-26T05:14:19;1169.25;;;999.90;;
31732;SDS011;18312;51.486;7.144;2024-02-26T05:16:49;1154.18;;;999.90;;
31732;SDS011;18312;51.486;7.144;2024-02-26T05:19:17;1149.93;;;999.90;;
31732;SDS011;18312;51.486;7.144;2024-02-26T05:21:46;1165.30;;;999.90;;
31732;SDS011;18312;51.486;7.144;2024-02-26T05:24:23;1156.27;;;999.90;;
31732;SDS011;18312;51.486;7.144;2024-02-26T05:26:50;1165.15;;;999.90;;
31732;SDS011;18312;51.486;7.144;2024-02-26T05:29:19;1159.40;;;999.90;;
31732;SDS011;18312;51.486;7.144;2024-02-26T05:31:47;1180.60;;;999.90;;
31732;SDS011;18312;51.486;7.144;2024-02-26T05:34:25;1144.53;;;999.90;;
31732;SDS011;18312;51.486;7.144;2024-02-26T05:36:54;1146.88;;;999.90;;
31732;SDS011;18312;51.486;7.144;2024-02-26T05:39:39;1146.03;;;999.90;;
31732;SDS011;18312;51.486;7.144;2024-02-26T05:42:16;1140.68;;;999.90;;
31732;SDS011;18312;51.486;7.144;2024-02-26T05:48:02;1140.90;;;999.90;;
31732;SDS011;18312;51.486;7.144;2024-02-26T05:50:32;1143.60;;;999.90;;
31732;SDS011;18312;51.486;7.144;2024-02-26T05:53:05;1157.97;;;999.90;;
31732;SDS011;18312;51.486;7.144;2024-02-26T05:55:36;1144.28;;;999.90;;
31732;SDS011;18312;51.486;7.144;2024-02-26T05:58:03;1171.25;;;999.90;;
31732;SDS011;18312;51.486;7.144;2024-02-26T06:00:32;1182.75;;;999.90;;
31732;SDS011;18312;51.486;7.144;2024-02-26T06:12:38;1134.97;;;999.90;;
31732;SDS011;18312;51.486;7.144;2024-02-26T06:15:24;1138.28;;;999.90;;
31732;SDS011;18312;51.486;7.144;2024-02-26T06:21:27;1140.22;;;999.90;;
31732;SDS011;18312;51.486;7.144;2024-02-26T06:24:36;1140.90;;;999.90;;
31732;SDS011;18312;51.486;7.144;2024-02-26T06:27:22;1145.32;;;999.90;;
31732;SDS011;18312;51.486;7.144;2024-02-26T06:29:52;1133.82;;;999.90;;
31732;SDS011;18312;51.486;7.144;2024-02-26T06:32:44;1131.53;;;999.90;;
31732;SDS011;18312;51.486;7.144;2024-02-26T06:35:24;1134.30;;;999.90;;
31732;SDS011;18312;51.486;7.144;2024-02-26T06:41:34;1134.80;;;999.90;;
31732;SDS011;18312;51.486;7.144;2024-02-26T06:44:59;1146.25;;;999.90;;
31732;SDS011;18312;51.486;7.144;2024-02-26T06:47:26;1145.93;;;999.90;;
31732;SDS011;18312;51.486;7.144;2024-02-26T06:49:53;1145.07;;;999.90;;
31732;SDS011;18312;51.486;7.144;2024-02-26T06:52:26;1259.75;;;999.90;;
31732;SDS011;18312;51.486;7.144;2024-02-26T06:54:53;1273.97;;;999.90;;
31732;SDS011;18312;51.486;7.144;2024-02-26T06:57:20;1268.85;;;999.90;;
31732;SDS011;18312;51.486;7.144;2024-02-26T06:59:47;1265.18;;;999.90;;
31732;SDS011;18312;51.486;7.144;2024-02-26T07:02:14;1270.80;;;999.90;;
31732;SDS011;18312;51.486;7.144;2024-02-26T07:04:41;1161.57;;;999.90;;
31732;SDS011;18312;51.486;7.144;2024-02-26T07:07:09;1211.93;;;999.90;;
31732;SDS011;18312;51.486;7.144;2024-02-26T07:09:41;1193.90;;;999.90;;
31732;SDS011;18312;51.486;7.144;2024-02-26T07:12:08;1253.88;;;999.90;;
31732;SDS011;18312;51.486;7.144;2024-02-26T07:14:36;1206.57;;;999.90;;
31732;SDS011;18312;51.486;7.144;2024-02-26T07:17:03;1209.03;;;999.90;;
31732;SDS011;18312;51.486;7.144;2024-02-26T07:19:30;1199.60;;;999.90;;
31732;SDS011;18312;51.486;7.144;2024-02-26T07:21:59;1221.95;;;999.90;;
31732;SDS011;18312;51.486;7.144;2024-02-26T07:24:27;1196.25;;;999.90;;
31732;SDS011;18312;51.486;7.144;2024-02-26T07:26:57;1187.70;;;999.90;;
31732;SDS011;18312;51.486;7.144;2024-02-26T07:29:24;1208.28;;;999.90;;
31732;SDS011;18312;51.486;7.144;2024-02-26T07:31:51;1202.45;;;999.90;;
31732;SDS011;18312;51.486;7.144;2024-02-26T07:34:19;1194.10;;;999.90;;
31732;SDS011;18312;51.486;7.144;2024-02-26T07:36:55;1207.18;;;999.90;;
31732;SDS011;18312;51.486;7.144;2024-02-26T07:39:22;1225.50;;;999.90;;
31732;SDS011;18312;51.486;7.144;2024-02-26T07:41:50;1186.03;;;999.90;;
31732;SDS011;18312;51.486;7.144;2024-02-26T07:44:19;1182.25;;;999.90;;
31732;SDS011;18312;51.486;7.144;2024-02-26T07:46:47;1173.87;;;999.90;;
31732;SDS011;18312;51.486;7.144;2024-02-26T07:49:15;1189.95;;;999.90;;
31732;SDS011;18312;51.486;7.144;2024-02-26T07:51:42;1202.97;;;999.90;;
31732;SDS011;18312;51.486;7.144;2024-02-26T07:54:10;1185.63;;;999.90;;
31732;SDS011;18312;51.486;7.144;2024-02-26T07:56:38;1206.93;;;999.90;;
31732;SDS011;18312;51.486;7.144;2024-02-26T07:59:07;1192.22;;;999.90;;
31732;SDS011;18312;51.486;7.144;2024-02-26T08:01:37;1189.07;;;999.90;;
31732;SDS011;18312;51.486;7.144;2024-02-26T08:04:09;1185.72;;;999.90;;
31732;SDS011;18312;51.486;7.144;2024-02-26T08:06:36;1182.90;;;999.90;;
31732;SDS011;18312;51.486;7.144;2024-02-26T08:09:04;1201.97;;;999.90;;
31732;SDS011;18312;51.486;7.144;2024-02-26T08:11:32;1181.47;;;999.90;;
31732;SDS011;18312;51.486;7.144;2024-02-26T08:13:59;1188.07;;;999.90;;
31732;SDS011;18312;51.486;7.144;2024-02-26T08:16:26;1209.03;;;999.90;;
31732;SDS011;18312;51.486;7.144;2024-02-26T08:18:55;1195.05;;;999.90;;
31732;SDS011;18312;51.486;7.144;2024-02-26T08:21:26;1194.85;;;999.90;;
31732;SDS011;18312;51.486;7.144;2024-02-26T08:23:54;1196.45;;;999.90;;
31732;SDS011;18312;51.486;7.144;2024-02-26T08:26:21;1247.43;;;999.90;;
31732;SDS011;18312;51.486;7.144;2024-02-26T08:28:49;1166.00;;;999.90;;
31732;SDS011;18312;51.486;7.144;2024-02-26T08:31:16;1208.30;;;999.90;;
31732;SDS011;18312;51.486;7.144;2024-02-26T08:33:44;1195.40;;;999.90;;
31732;SDS011;18312;51.486;7.144;2024-02-26T08:36:12;1187.80;;;999.90;;
31732;SDS011;18312;51.486;7.144;2024-02-26T08:38:40;1211.97;;;999.90;;
31732;SDS011;18312;51.486;7.144;2024-02-26T08:41:07;1190.05;;;999.90;;
31732;SDS011;18312;51.486;7.144;2024-02-26T08:43:37;1193.88;;;999.90;;
31732;SDS011;18312;51.486;7.144;2024-02-26T08:46:04;1186.95;;;999.90;;
31732;SDS011;18312;51.486;7.144;2024-02-26T08:48:38;1183.77;;;999.90;;
31732;SDS011;18312;51.486;7.144;2024-02-26T08:51:13;1170.03;;;999.90;;
31732;SDS011;18312;51.486;7.144;2024-02-26T08:53:41;1247.50;;;999.90;;
31732;SDS011;18312;51.486;7.144;2024-02-26T08:56:08;1174.57;;;999.90;;
31732;SDS011;18312;51.486;7.144;2024-02-26T08:58:41;1165.15;;;999.90;;
31732;SDS011;18312;51.486;7.144;2024-02-26T09:01:15;1175.57;;;999.90;;
31732;SDS011;18312;51.486;7.144;2024-02-26T09:03:43;1159.85;;;999.90;;
31732;SDS011;18312;51.486;7.144;2024-02-26T09:06:10;1164.97;;;999.90;;
31732;SDS011;18312;51.486;7.144;2024-02-26T09:08:41;1168.78;;;999.90;;
31732;SDS011;18312;51.486;7.144;2024-02-26T09:11:15;1163.70;;;999.90;;
31732;SDS011;18312;51.486;7.144;2024-02-26T09:13:45;1159.50;;;999.90;;
31732;SDS011;18312;51.486;7.144;2024-02-26T09:16:14;1162.45;;;999.90;;
31732;SDS011;18312;51.486;7.144;2024-02-26T09:18:58;1164.88;;;999.90;;
31732;SDS011;18312;51.486;7.144;2024-02-26T09:21:42;1160.18;;;999.90;;
31732;SDS011;18312;51.486;7.144;2024-02-26T09:24:28;1179.28;;;999.90;;
31732;SDS011;18312;51.486;7.144;2024-02-26T09:27:15;1169.53;;;999.90;;
31732;SDS011;18312;51.486;7.144;2024-02-26T09:29:46;1189.72;;;999.90;;
31732;SDS011;18312;51.486;7.144;2024-02-26T09:32:18;1168.57;;;999.90;;
31732;SDS011;18312;51.486;7.144;2024-02-26T09:34:50;1168.03;;;999.90;;
31732;SDS011;18312;51.486;7.144;2024-02-26T09:37:26;1164.22;;;999.90;;
31732;SDS011;18312;51.486;7.144;2024-02-26T09:39:55;1179.70;;;999.90;;
31732;SDS011;18312;51.486;7.144;2024-02-26T09:42:28;1161.70;;;999.90;;
31732;SDS011;18312;51.486;7.144;2024-02-26T09:45:00;1187.53;;;999.90;;
31732;SDS011;18312;51.486;7.144;2024-02-26T09:47:34;1186.10;;;999.90;;
31732;SDS011;18312;51.486;7.144;2024-02-26T09:50:06;1179.97;;;999.90;;
31732;SDS011;18312;51.486;7.144;2024-02-26T09:52:37;1169.40;;;999.90;;
31732;SDS011;18312;51.486;7.144;2024-02-26T09:55:07;1172.20;;;999.90;;
31732;SDS011;18312;51.486;7.144;2024-02-26T09:57:58;1181.47;;;999.90;;
31732;SDS011;18312;51.486;7.144;2024-02-26T10:00:25;1182.82;;;999.90;;
31732;SDS011;18312;51.486;7.144;2024-02-26T10:02:58;1202.47;;;999.90;;
31732;SDS011;18312;51.486;7.144;2024-02-26T10:05:28;1180.47;;;999.90;;
31732;SDS011;18312;51.486;7.144;2024-02-26T10:07:56;1189.05;;;999.90;;
31732;SDS011;18312;51.486;7.144;2024-02-26T10:10:28;1213.03;;;999.90;;
31732;SDS011;18312;51.486;7.144;2024-02-26T10:12:56;1180.83;;;999.90;;
31732;SDS011;18312;51.486;7.144;2024-02-26T10:15:25;1233.57;;;999.90;;
31732;SDS011;18312;51.486;7.144;2024-02-26T10:17:52;1193.22;;;999.90;;
31732;SDS011;18312;51.486;7.144;2024-02-26T10:20:20;1184.80;;;999.90;;
31732;SDS011;18312;51.486;7.144;2024-02-26T10:22:51;1211.50;;;999.90;;
31732;SDS011;18312;51.486;7.144;2024-02-26T10:25:24;1203.17;;;999.90;;
31732;SDS011;18312;51.486;7.144;2024-02-26T10:27:58;1183.25;;;999.90;;
31732;SDS011;18312;51.486;7.144;2024-02-26T10:30:29;1193.37;;;999.90;;
31732;SDS011;18312;51.486;7.144;2024-02-26T10:33:03;1192.00;;;999.90;;
31732;SDS011;18312;51.486;7.144;2024-02-26T10:35:30;1202.68;;;999.90;;
31732;SDS011;18312;51.486;7.144;2024-02-26T10:38:03;1199.05;;;999.90;;
31732;SDS011;18312;51.486;7.144;2024-02-26T10:40:30;1194.10;;;999.90;;
31732;SDS011;18312;51.486;7.144;2024-02-26T10:43:03;1202.73;;;999.90;;
31732;SDS011;18312;51.486;7.144;2024-02-26T10:45:33;1194.40;;;999.90;;
31732;SDS011;18312;51.486;7.144;2024-02-26T10:48:07;1189.95;;;999.90;;
31732;SDS011;18312;51.486;7.144;2024-02-26T10:50:37;1193.63;;;999.90;;
31732;SDS011;18312;51.486;7.144;2024-02-26T10:53:05;1210.72;;;999.90;;
31732;SDS011;18312;51.486;7.144;2024-02-26T10:55:41;1198.55;;;999.90;;
31732;SDS011;18312;51.486;7.144;2024-02-26T10:58:14;1208.53;;;999.90;;
31732;SDS011;18312;51.486;7.144;2024-02-26T11:00:43;1205.15;;;999.90;;
31732;SDS011;18312;51.486;7.144;2024-02-26T11:03:17;1207.07;;;999.90;;
31732;SDS011;18312;51.486;7.144;2024-02-26T11:05:46;1237.55;;;999.90;;
31732;SDS011;18312;51.486;7.144;2024-02-26T11:08:17;1196.25;;;999.90;;
31732;SDS011;18312;51.486;7.144;2024-02-26T11:10:52;1211.18;;;999.90;;
31732;SDS011;18312;51.486;7.144;2024-02-26T11:13:22;1203.82;;;999.90;;
31732;SDS011;18312;51.486;7.144;2024-02-26T11:16:01;1203.25;;;999.90;;
31732;SDS011;18312;51.486;7.144;2024-02-26T11:18:30;1216.07;;;999.90;;
31732;SDS011;18312;51.486;7.144;2024-02-26T11:20:59;1205.07;;;999.90;;
31732;SDS011;18312;51.486;7.144;2024-02-26T11:23:28;1235.05;;;999.90;;
31732;SDS011;18312;51.486;7.144;2024-02-26T11:25:57;1214.63;;;999.90;;
31732;SDS011;18312;51.486;7.144;2024-02-26T11:28:30;1211.53;;;999.90;;
31732;SDS011;18312;51.486;7.144;2024-02-26T11:31:02;1241.60;;;999.90;;
31732;SDS011;18312;51.486;7.144;2024-02-26T11:33:32;1248.18;;;999.90;;
31732;SDS011;18312;51.486;7.144;2024-02-26T11:36:01;1206.15;;;999.90;;
31732;SDS011;18312;51.486;7.144;2024-02-26T11:38:36;1215.03;;;999.90;;
31732;SDS011;18312;51.486;7.144;2024-02-26T11:41:06;1218.20;;;999.90;;
31732;SDS011;18312;51.486;7.144;2024-02-26T11:43:52;1207.80;;;999.90;;
31732;SDS011;18312;51.486;7.144;2024-02-26T11:46:26;1213.25;;;999.90;;
31732;SDS011;18312;51.486;7.144;2024-02-26T11:48:56;1215.13;;;999.90;;
31732;SDS011;18312;51.486;7.144;2024-02-26T11:51:35;1221.00;;;999.90;;
31732;SDS011;18312;51.486;7.144;2024-02-26T11:54:11;1227.10;;;999.90;;
31732;SDS011;18312;51.486;7.144;2024-02-26T11:56:58;1220.50;;;999.90;;
31732;SDS011;18312;51.486;7.144;2024-02-26T11:59:38;1224.53;;;999.90;;
31732;SDS011;18312;51.486;7.144;2024-02-26T12:02:18;1225.28;;;999.90;;
31732;SDS011;18312;51.486;7.144;2024-02-26T12:05:24;1235.57;;;999.90;;
31732;SDS011;18312;51.486;7.144;2024-02-26T12:07:53;1237.43;;;999.90;;
31732;SDS011;18312;51.486;7.144;2024-02-26T12:10:39;1216.97;;;999.90;;
31732;SDS011;18312;51.486;7.144;2024-02-26T12:13:10;1244.50;;;999.90;;
31732;SDS011;18312;51.486;7.144;2024-02-26T12:15:56;1223.93;;;999.90;;
31732;SDS011;18312;51.486;7.144;2024-02-26T12:18:30;1210.70;;;999.90;;
31732;SDS011;18312;51.486;7.144;2024-02-26T12:21:08;1223.20;;;999.90;;
31732;SDS011;18312;51.486;7.144;2024-02-26T12:23:38;1234.13;;;999.90;;
31732;SDS011;18312;51.486;7.144;2024-02-26T12:26:08;1256.30;;;999.90;;
31732;SDS011;18312;51.486;7.144;2024-02-26T12:28:37;1234.65;;;999.90;;
31732;SDS011;18312;51.486;7.144;2024-02-26T12:31:09;1210.85;;;999.90;;
31732;SDS011;18312;51.486;7.144;2024-02-26T12:33:40;1220.20;;;999.90;;
31732;SDS011;18312;51.486;7.144;2024-02-26T12:36:10;1219.28;;;999.90;;
31732;SDS011;18312;51.486;7.144;2024-02-26T12:38:41;1236.30;;;999.90;;
31732;SDS011;18312;51.486;7.144;2024-02-26T12:41:08;1279.35;;;999.90;;
31732;SDS011;18312;51.486;7.144;2024-02-26T12:43:39;1243.38;;;999.90;;
31732;SDS011;18312;51.486;7.144;2024-02-26T12:46:07;1267.93;;;999.90;;
31732;SDS011;18312;51.486;7.144;2024-02-26T12:48:36;1260.55;;;999.90;;
31732;SDS011;18312;51.486;7.144;2024-02-26T12:51:04;1259.87;;;999.90;;
31732;SDS011;18312;51.486;7.144;2024-02-26T12:53:32;1334.65;;;999.90;;
31732;SDS011;18312;51.486;7.144;2024-02-26T12:55:59;1333.50;;;999.90;;
31732;SDS011;18312;51.486;7.144;2024-02-26T12:58:30;1298.40;;;999.90;;
31732;SDS011;18312;51.486;7.144;2024-02-26T13:00:58;1333.38;;;999.90;;
31732;SDS011;18312;51.486;7.144;2024-02-26T13:03:26;1333.05;;;999.90;;
31732;SDS011;18312;51.486;7.144;2024-02-26T13:05:55;1306.82;;;999.90;;
31732;SDS011;18312;51.486;7.144;2024-02-26T13:08:22;1317.63;;;999.90;;
31732;SDS011;18312;51.486;7.144;2024-02-26T13:10:49;1328.82;;;999.90;;
31732;SDS011;18312;51.486;7.144;2024-02-26T13:13:20;1321.55;;;999.90;;
31732;SDS011;18312;51.486;7.144;2024-02-26T13:15:48;1332.63;;;999.90;;
31732;SDS011;18312;51.486;7.144;2024-02-26T13:18:15;1324.05;;;999.90;;
31732;SDS011;18312;51.486;7.144;2024-02-26T13:20:43;1324.15;;;999.90;;
31732;SDS011;18312;51.486;7.144;2024-02-26T13:23:11;1320.18;;;999.90;;
31732;SDS011;18312;51.486;7.144;2024-02-26T13:25:48;1301.85;;;999.90;;
31732;SDS011;18312;51.486;7.144;2024-02-26T13:28:22;1301.10;;;999.90;;
31732;SDS011;18312;51.486;7.144;2024-02-26T13:30:52;1305.18;;;999.90;;
31732;SDS011;18312;51.486;7.144;2024-02-26T13:33:21;1268.37;;;999.90;;
31732;SDS011;18312;51.486;7.144;2024-02-26T13:35:50;1307.23;;;999.90;;
31732;SDS011;18312;51.486;7.144;2024-02-26T13:38:17;1318.68;;;999.90;;
31732;SDS011;18312;51.486;7.144;2024-02-26T13:40:44;1319.47;;;999.90;;
31732;SDS011;18312;51.486;7.144;2024-02-26T13:43:11;1308.95;;;999.90;;
31732;SDS011;18312;51.486;7.144;2024-02-26T13:45:41;1308.75;;;999.90;;
31732;SDS011;18312;51.486;7.144;2024-02-26T13:48:10;1304.63;;;999.90;;
31732;SDS011;18312;51.486;7.144;2024-02-26T13:50:37;1317.53;;;999.90;;
31732;SDS011;18312;51.486;7.144;2024-02-26T13:53:06;1293.45;;;999.90;;
31732;SDS011;18312;51.486;7.144;2024-02-26T13:55:33;1298.50;;;999.90;;
31732;SDS011;18312;51.486;7.144;2024-02-26T13:58:01;1316.32;;;999.90;;
31732;SDS011;18312;51.486;7.144;2024-02-26T14:00:28;1311.40;;;999.90;;
31732;SDS011;18312;51.486;7.144;2024-02-26T14:02:57;1297.65;;;999.90;;
31732;SDS011;18312;51.486;7.144;2024-02-26T14:05:24;1318.75;;;999.90;;
31732;SDS011;18312;51.486;7.144;2024-02-26T14:07:52;1309.85;;;999.90;;
31732;SDS011;18312;51.486;7.144;2024-02-26T14:10:21;1301.57;;;999.90;;
31732;SDS011;18312;51.486;7.144;2024-02-26T14:12:48;1299.13;;;999.90;;
31732;SDS011;18312;51.486;7.144;2024-02-26T14:15:15;1299.47;;;999.90;;
31732;SDS011;18312;51.486;7.144;2024-02-26T14:17:42;1308.43;;;999.90;;
31732;SDS011;18312;51.486;7.144;2024-02-26T14:20:13;1306.65;;;999.90;;